createdAt,value
2018-06-02T00:00:40.926Z,46.37
2018-06-02T00:03:08.990Z,46.76
2018-06-02T00:05:36.515Z,46.91
2018-06-02T00:08:04.043Z,47.34
2018-06-02T00:10:31.938Z,47.34
2018-06-02T00:12:59.459Z,47.80
2018-06-02T00:15:26.978Z,48.17
2018-06-02T00:17:54.877Z,48.28
2018-06-02T00:20:22.393Z,48.48
2018-06-02T00:22:49.910Z,48.83
2018-06-02T00:25:17.787Z,49.06
2018-06-02T00:27:45.310Z,49.13
2018-06-02T00:30:12.827Z,49.10
2018-06-02T00:32:41.005Z,49.29
2018-06-02T00:35:08.518Z,49.24
2018-06-02T00:37:36.038Z,49.49
2018-06-02T00:40:03.882Z,49.46
2018-06-02T00:42:31.442Z,49.61
2018-06-02T00:44:58.966Z,49.87
2018-06-02T00:47:26.848Z,49.95
2018-06-02T00:49:54.724Z,50.23
2018-06-02T00:52:22.246Z,50.12
2018-06-02T00:55:01.830Z,50.42
2018-06-02T00:57:29.693Z,50.43
2018-06-02T00:59:57.218Z,50.66
2018-06-02T01:02:24.885Z,50.91
2018-06-02T01:04:52.671Z,51.03
2018-06-02T01:07:20.187Z,51.18
2018-06-02T01:09:47.853Z,51.29
2018-06-02T01:12:15.670Z,51.53
2018-06-02T01:14:43.197Z,51.64
2018-06-02T01:17:11.087Z,52.01
2018-06-02T01:19:38.681Z,52.03
2018-06-02T01:22:06.202Z,52.27
2018-06-02T01:24:33.878Z,52.64
2018-06-02T01:27:01.630Z,52.77
2018-06-02T01:29:29.397Z,52.84
2018-06-02T01:31:57.015Z,52.77
2018-06-02T01:34:24.650Z,52.68
2018-06-02T01:36:52.223Z,52.89
2018-06-02T01:39:20.024Z,52.91
2018-06-02T01:41:47.688Z,52.89
2018-06-02T01:44:15.367Z,52.97
2018-06-02T01:46:43.201Z,53.10
2018-06-02T01:49:10.721Z,52.94
2018-06-02T01:51:38.986Z,53.02
2018-06-02T01:54:06.899Z,53.02
2018-06-02T01:56:34.415Z,52.98
2018-06-02T01:59:02.243Z,53.06
2018-06-02T02:01:30.326Z,53.11
2018-06-02T02:03:57.903Z,53.13
2018-06-02T02:06:25.420Z,52.94
2018-06-02T02:08:53.492Z,52.81
2018-06-02T02:11:21.013Z,52.83
2018-06-02T02:13:48.534Z,52.75
2018-06-02T02:16:16.364Z,52.69
2018-06-02T02:18:43.882Z,52.68
2018-06-02T02:21:11.414Z,52.68
2018-06-02T02:23:39.035Z,52.51
2018-06-02T02:26:06.739Z,52.43
2018-06-02T02:28:34.257Z,52.27
2018-06-02T02:31:02.141Z,52.14
2018-06-02T02:33:29.658Z,52.13
2018-06-02T02:35:57.505Z,52.07
2018-06-02T02:38:25.432Z,52.12
2018-06-02T02:40:52.952Z,52.09
2018-06-02T02:43:20.473Z,52.15
2018-06-02T02:45:48.602Z,52.16
2018-06-02T02:48:16.122Z,52.05
2018-06-02T02:50:43.653Z,51.92
2018-06-02T02:53:11.749Z,51.85
2018-06-02T02:55:39.265Z,51.75
2018-06-02T02:58:06.786Z,51.74
2018-06-02T03:00:34.711Z,51.86
2018-06-02T03:03:03.149Z,51.93
2018-06-02T03:05:30.737Z,51.80
2018-06-02T03:07:58.592Z,51.70
2018-06-02T03:10:26.114Z,51.66
2018-06-02T03:12:53.630Z,51.70
2018-06-02T03:15:21.386Z,51.66
2018-06-02T03:17:48.907Z,51.65
2018-06-02T03:20:17.085Z,51.65
2018-06-02T03:22:44.686Z,51.76
2018-06-02T03:25:12.286Z,51.68
2018-06-02T03:27:39.804Z,51.58
2018-06-02T03:30:07.446Z,51.52
2018-06-02T03:32:34.966Z,51.48
2018-06-02T03:35:02.769Z,51.56
2018-06-02T03:37:30.644Z,51.56
2018-06-02T03:39:58.159Z,51.48
2018-06-02T03:42:25.770Z,51.29
2018-06-02T03:44:53.385Z,51.17
2018-06-02T03:47:20.901Z,51.27
2018-06-02T03:49:48.423Z,51.31
2018-06-02T03:52:16.330Z,51.36
2018-06-02T03:54:43.852Z,51.36
2018-06-02T03:57:11.697Z,51.41
2018-06-02T03:59:39.621Z,51.42
2018-06-02T04:02:07.134Z,51.46
2018-06-02T04:04:34.649Z,51.50
2018-06-02T04:07:03.034Z,51.58
2018-06-02T04:09:30.547Z,51.52
2018-06-02T04:11:58.497Z,51.63
2018-06-02T04:14:26.538Z,51.63
2018-06-02T04:16:54.054Z,51.55
2018-06-02T04:19:21.964Z,51.54
2018-06-02T04:21:53.866Z,51.50
2018-06-02T04:24:21.400Z,51.50
2018-06-02T04:26:49.154Z,51.41
2018-06-02T04:29:20.770Z,51.40
2018-06-02T04:31:48.285Z,51.28
2018-06-02T04:34:15.882Z,51.19
2018-06-02T04:36:43.760Z,51.16
2018-06-02T04:39:11.858Z,51.16
2018-06-02T04:41:41.578Z,51.21
2018-06-02T04:44:09.114Z,51.28
2018-06-02T04:46:36.938Z,51.51
2018-06-02T04:49:04.870Z,51.63
2018-06-02T04:51:32.417Z,51.44
2018-06-02T04:54:00.229Z,51.30
2018-06-02T04:56:27.922Z,51.20
2018-06-02T04:58:55.458Z,51.08
2018-06-02T05:01:23.058Z,50.90
2018-06-02T05:03:50.843Z,50.62
2018-06-02T05:06:18.384Z,50.37
2018-06-02T05:08:46.198Z,50.27
2018-06-02T05:11:14.129Z,50.03
2018-06-02T05:13:41.702Z,50.04
2018-06-02T05:16:09.215Z,49.98
2018-06-02T05:18:37.198Z,49.74
2018-06-02T05:21:04.758Z,49.59
2018-06-02T05:23:32.274Z,49.48
2018-06-02T05:26:00.405Z,49.32
2018-06-02T05:28:27.976Z,49.08
2018-06-02T05:30:55.525Z,49.04
2018-06-02T05:33:23.114Z,48.87
2018-06-02T05:35:50.683Z,48.68
2018-06-02T05:38:18.249Z,48.53
2018-06-02T05:40:46.238Z,48.31
2018-06-02T05:43:13.990Z,48.11
2018-06-02T05:45:41.521Z,48.00
2018-06-02T05:48:09.350Z,47.82
2018-06-02T05:50:37.047Z,47.70
2018-06-02T05:53:04.572Z,47.58
2018-06-02T05:55:32.340Z,47.40
2018-06-02T05:57:59.987Z,47.21
2018-06-02T06:00:27.513Z,47.00
2018-06-02T06:02:55.335Z,46.93
2018-06-02T06:05:22.941Z,46.76
2018-06-02T06:07:50.458Z,46.39
2018-06-02T06:10:18.615Z,46.09
2018-06-02T06:12:46.533Z,45.79
2018-06-02T06:15:14.049Z,45.62
2018-06-02T06:17:41.613Z,45.35
2018-06-02T06:20:09.218Z,45.18
2018-06-02T06:22:36.743Z,44.91
2018-06-02T06:25:04.570Z,44.82
2018-06-02T06:27:32.509Z,44.72
2018-06-02T06:30:00.029Z,44.52
2018-06-02T06:32:27.873Z,44.46
2018-06-02T06:34:55.813Z,44.30
2018-06-02T06:37:23.333Z,44.09
2018-06-02T06:39:51.170Z,43.81
2018-06-02T06:42:19.269Z,43.84
2018-06-02T06:44:46.852Z,43.58
2018-06-02T06:47:14.405Z,43.40
2018-06-02T06:49:42.410Z,43.15
2018-06-02T06:52:09.917Z,42.93
2018-06-02T06:54:37.642Z,42.79
2018-06-02T06:57:05.478Z,42.64
2018-06-02T06:59:33.007Z,42.35
2018-06-02T07:02:00.742Z,42.14
2018-06-02T07:04:28.662Z,41.74
2018-06-02T07:06:56.183Z,41.37
2018-06-02T07:09:23.779Z,41.26
2018-06-02T07:11:51.678Z,40.90
2018-06-02T07:14:19.258Z,40.87
2018-06-02T07:16:47.018Z,40.26
2018-06-02T07:19:14.586Z,39.83
2018-06-02T07:21:42.462Z,39.75
2018-06-02T07:24:10.022Z,39.41
2018-06-02T07:26:37.577Z,38.99
2018-06-02T07:29:05.415Z,38.73
2018-06-02T07:31:32.999Z,39.25
2018-06-02T07:34:00.565Z,39.35
2018-06-02T07:36:28.127Z,38.62
2018-06-02T07:38:55.803Z,37.73
2018-06-02T07:41:23.364Z,36.18
2018-06-02T07:43:51.346Z,35.12
2018-06-02T07:46:19.279Z,34.33
2018-06-02T07:48:47.448Z,33.89
2018-06-02T07:51:14.974Z,33.39
2018-06-02T07:53:42.671Z,32.34
2018-06-02T07:56:10.218Z,32.14
2018-06-02T07:58:37.734Z,30.81
2018-06-02T08:01:07.066Z,30.27
2018-06-02T08:03:34.635Z,29.79
2018-06-02T08:06:02.166Z,29.80
2018-06-02T08:08:29.902Z,29.28
2018-06-02T08:10:57.480Z,28.94
2018-06-02T08:13:25.305Z,28.46
2018-06-02T08:15:53.030Z,28.33
2018-06-02T08:18:20.574Z,27.24
2018-06-02T08:20:48.090Z,27.52
2018-06-02T08:23:16.010Z,27.09
2018-06-02T08:25:43.546Z,26.75
2018-06-02T08:28:11.066Z,26.72
2018-06-02T08:30:38.989Z,26.74
2018-06-02T08:33:06.561Z,26.47
2018-06-02T08:35:34.083Z,26.44
2018-06-02T08:38:02.221Z,26.06
2018-06-02T08:40:29.867Z,26.22
2018-06-02T08:42:58.187Z,25.31
2018-06-02T08:45:26.678Z,25.88
2018-06-02T08:47:54.224Z,26.43
2018-06-02T08:50:21.738Z,26.13
2018-06-02T08:52:49.799Z,25.79
2018-06-02T08:55:17.349Z,26.15
2018-06-02T08:57:44.865Z,26.25
2018-06-02T09:00:12.774Z,25.91
2018-06-02T09:02:40.393Z,25.02
2018-06-02T09:05:07.926Z,25.87
2018-06-02T09:07:35.896Z,25.76
2018-06-02T09:10:03.687Z,24.57
2018-06-02T09:12:31.213Z,24.14
2018-06-02T09:14:58.850Z,24.62
2018-06-02T09:17:26.694Z,24.41
2018-06-02T09:19:54.213Z,23.87
2018-06-02T09:22:21.726Z,24.46
2018-06-02T09:24:49.354Z,24.69
2018-06-02T09:27:16.871Z,25.39
2018-06-02T09:29:44.442Z,26.30
2018-06-02T09:32:12.071Z,26.30
2018-06-02T09:34:39.590Z,26.25
2018-06-02T09:37:07.105Z,26.27
2018-06-02T09:39:34.767Z,27.02
2018-06-02T09:42:02.326Z,27.02
2018-06-02T09:44:30.192Z,26.96
2018-06-02T09:46:58.098Z,26.72
2018-06-02T09:49:25.617Z,27.20
2018-06-02T09:51:53.615Z,26.62
2018-06-02T09:54:23.900Z,27.44
2018-06-02T09:56:51.418Z,28.20
2018-06-02T09:59:18.959Z,28.82
2018-06-02T10:01:49.034Z,27.73
2018-06-02T10:04:16.574Z,27.29
2018-06-02T10:06:44.130Z,26.07
2018-06-02T10:09:11.698Z,25.84
2018-06-02T10:11:39.597Z,27.23
2018-06-02T10:14:07.226Z,28.08
2018-06-02T10:16:34.849Z,28.87
2018-06-02T10:19:02.582Z,29.10
2018-06-02T10:21:31.019Z,28.84
2018-06-02T10:23:58.587Z,27.98
2018-06-02T10:26:26.498Z,28.06
2018-06-02T10:28:54.374Z,27.70
2018-06-02T10:31:21.942Z,27.51
2018-06-02T10:33:49.781Z,27.38
2018-06-02T10:36:17.406Z,27.08
2018-06-02T10:38:45.015Z,25.18
2018-06-02T10:41:12.762Z,24.54
2018-06-02T10:43:40.601Z,26.10
2018-06-02T10:46:08.391Z,27.61
2018-06-02T10:48:36.703Z,25.98
2018-06-02T10:51:04.661Z,24.89
2018-06-02T10:53:32.288Z,24.10
2018-06-02T10:55:59.851Z,24.71
2018-06-02T10:58:28.298Z,25.14
2018-06-02T11:00:55.871Z,24.67
2018-06-02T11:03:24.353Z,25.79
2018-06-02T11:05:51.909Z,26.60
2018-06-02T11:08:19.617Z,24.77
2018-06-02T11:10:47.466Z,25.03
2018-06-02T11:13:14.986Z,24.16
2018-06-02T11:15:42.569Z,24.84
2018-06-02T11:18:10.461Z,25.24
2018-06-02T11:20:38.400Z,25.70
2018-06-02T11:23:05.974Z,26.31
2018-06-02T11:25:33.738Z,26.33
2018-06-02T11:28:01.302Z,26.80
2018-06-02T11:30:28.853Z,27.46
2018-06-02T11:32:57.328Z,28.47
2018-06-02T11:35:25.058Z,28.29
2018-06-02T11:37:52.617Z,28.98
2018-06-02T11:40:20.308Z,28.58
2018-06-02T11:42:47.971Z,27.81
2018-06-02T11:45:15.635Z,27.72
2018-06-02T11:47:43.396Z,26.76
2018-06-02T11:50:11.086Z,25.98
2018-06-02T11:52:38.650Z,26.15
2018-06-02T11:55:06.309Z,26.19
2018-06-02T11:57:33.966Z,26.07
2018-06-02T12:00:01.600Z,26.91
2018-06-02T12:02:29.273Z,26.67
2018-06-02T12:04:56.839Z,26.25
2018-06-02T12:07:24.439Z,25.68
2018-06-02T12:09:52.261Z,25.99
2018-06-02T12:12:19.814Z,26.43
2018-06-02T12:14:47.361Z,27.40
2018-06-02T12:17:15.011Z,26.33
2018-06-02T12:19:42.860Z,26.35
2018-06-02T12:22:10.410Z,26.51
2018-06-02T12:27:12.002Z,26.85
2018-06-02T12:29:39.902Z,27.40
2018-06-02T12:32:07.439Z,27.66
2018-06-02T12:34:35.339Z,27.24
2018-06-02T12:37:02.910Z,27.41
2018-06-02T12:39:30.430Z,28.07
2018-06-02T12:41:58.309Z,26.73
2018-06-02T12:44:26.176Z,25.89
2018-06-02T12:46:53.718Z,25.97
2018-06-02T12:49:21.480Z,25.82
2018-06-02T12:51:49.205Z,25.55
2018-06-02T12:54:16.721Z,25.86
2018-06-02T12:56:44.458Z,25.69
2018-06-02T12:59:12.206Z,25.73
2018-06-02T13:01:39.732Z,25.79
2018-06-02T13:04:07.335Z,26.18
2018-06-02T13:06:34.997Z,26.77
2018-06-02T13:09:02.495Z,27.03
2018-06-02T13:11:30.237Z,26.27
2018-06-02T13:13:58.740Z,23.93
2018-06-02T13:16:26.258Z,23.21
2018-06-02T13:18:53.902Z,24.37
2018-06-02T13:21:21.547Z,25.19
2018-06-02T13:23:49.070Z,26.49
2018-06-02T13:26:16.658Z,26.70
2018-06-02T13:28:44.382Z,27.60
2018-06-02T13:31:11.929Z,27.30
2018-06-02T13:33:39.823Z,27.69
2018-06-02T13:36:07.489Z,28.55
2018-06-02T13:38:35.002Z,27.83
2018-06-02T13:41:02.798Z,26.91
2018-06-02T13:43:30.445Z,26.43
2018-06-02T13:45:57.965Z,26.28
2018-06-02T13:48:25.566Z,25.29
2018-06-02T13:50:53.134Z,25.56
2018-06-02T13:53:21.188Z,25.93
2018-06-02T13:55:48.906Z,26.94
2018-06-02T13:58:16.938Z,28.11
2018-06-02T14:00:44.494Z,27.78
2018-06-02T14:03:12.115Z,26.66
2018-06-02T14:05:40.236Z,25.65
2018-06-02T14:08:07.757Z,25.46
2018-06-02T14:10:35.358Z,25.01
2018-06-02T14:13:03.659Z,24.59
2018-06-02T14:15:31.190Z,23.17
2018-06-02T14:17:58.924Z,23.03
2018-06-02T14:20:26.942Z,22.96
2018-06-02T14:22:54.730Z,23.40
2018-06-02T14:25:22.627Z,23.55
2018-06-02T14:27:50.397Z,23.98
2018-06-02T14:30:17.909Z,23.72
2018-06-02T14:32:49.146Z,22.18
2018-06-02T14:35:16.702Z,21.47
2018-06-02T14:37:44.279Z,21.52
2018-06-02T14:40:11.840Z,22.11
2018-06-02T14:42:39.762Z,23.51
2018-06-02T14:45:07.336Z,24.45
2018-06-02T14:47:34.938Z,25.24
2018-06-02T14:50:02.728Z,25.64
2018-06-02T14:52:30.494Z,25.96
2018-06-02T14:54:58.248Z,26.44
2018-06-02T14:57:25.778Z,26.43
2018-06-02T14:59:53.494Z,26.84
2018-06-02T15:02:21.457Z,26.72
2018-06-02T15:04:49.334Z,26.88
2018-06-02T15:07:17.077Z,27.22
2018-06-02T15:09:44.745Z,28.03
2018-06-02T15:12:12.275Z,27.81
2018-06-02T15:14:39.798Z,27.87
2018-06-02T15:17:07.951Z,27.58
2018-06-02T15:19:35.502Z,27.28
2018-06-02T15:22:03.380Z,27.39
2018-06-02T15:24:31.031Z,27.44
2018-06-02T15:26:58.555Z,27.08
2018-06-02T15:29:26.349Z,27.54
2018-06-02T15:31:53.914Z,27.40
2018-06-02T15:34:21.442Z,26.71
2018-06-02T15:36:49.030Z,27.09
2018-06-02T15:39:16.590Z,27.09
2018-06-02T15:41:44.114Z,27.16
2018-06-02T15:44:11.993Z,26.86
2018-06-02T15:46:39.565Z,27.03
2018-06-02T15:49:07.084Z,27.65
2018-06-02T15:51:34.745Z,27.81
2018-06-02T15:54:02.936Z,28.23
2018-06-02T15:56:30.587Z,27.42
2018-06-02T15:58:58.659Z,26.35
2018-06-02T16:01:26.548Z,25.93
2018-06-02T16:03:54.066Z,25.39
2018-06-02T16:06:21.706Z,25.27
2018-06-02T16:08:49.567Z,24.39
2018-06-02T16:11:17.092Z,24.44
2018-06-02T16:13:46.021Z,25.18
2018-06-02T16:16:14.010Z,25.68
2018-06-02T16:18:41.537Z,26.10
2018-06-02T16:21:09.221Z,26.70
2018-06-02T16:23:36.902Z,27.26
2018-06-02T16:26:04.514Z,27.82
2018-06-02T16:28:32.036Z,28.36
2018-06-02T16:31:00.297Z,28.46
2018-06-02T16:33:27.846Z,27.75
2018-06-02T16:35:55.377Z,27.25
2018-06-02T16:38:26.143Z,26.56
2018-06-02T16:40:53.675Z,26.50
2018-06-02T16:43:21.192Z,26.03
2018-06-02T16:45:48.949Z,24.94
2018-06-02T16:48:16.471Z,24.78
2018-06-02T16:50:44.025Z,24.95
2018-06-02T16:53:11.691Z,25.09
2018-06-02T16:55:39.280Z,25.23
2018-06-02T16:58:07.097Z,25.37
2018-06-02T17:00:39.294Z,26.18
2018-06-02T17:03:07.080Z,26.86
2018-06-02T17:05:34.661Z,27.36
2018-06-02T17:08:02.814Z,27.78
2018-06-02T17:10:30.672Z,28.37
2018-06-02T17:12:58.193Z,28.91
2018-06-02T17:15:25.762Z,29.18
2018-06-02T17:17:53.558Z,29.29
2018-06-02T17:20:21.078Z,29.78
2018-06-02T17:22:48.706Z,29.81
2018-06-02T17:25:16.766Z,29.98
2018-06-02T17:27:44.333Z,30.50
2018-06-02T17:30:11.903Z,30.92
2018-06-02T17:32:39.641Z,31.20
2018-06-02T17:35:08.019Z,31.36
2018-06-02T17:37:35.563Z,31.56
2018-06-02T17:40:05.394Z,31.75
2018-06-02T17:42:32.910Z,32.04
2018-06-02T17:45:00.475Z,32.38
2018-06-02T17:47:28.054Z,32.52
2018-06-02T17:49:55.578Z,32.54
2018-06-02T17:52:23.174Z,32.73
2018-06-02T17:54:50.713Z,32.89
2018-06-02T17:57:18.233Z,33.11
2018-06-02T17:59:46.102Z,33.29
2018-06-02T18:02:14.155Z,33.65
2018-06-02T18:04:42.275Z,33.79
2018-06-02T18:07:09.850Z,33.96
2018-06-02T18:09:37.591Z,34.10
2018-06-02T18:12:05.114Z,34.17
2018-06-02T18:14:32.677Z,34.18
2018-06-02T18:17:00.370Z,34.35
2018-06-02T18:19:27.898Z,34.40
2018-06-02T18:21:55.545Z,34.55
2018-06-02T18:24:23.599Z,34.64
2018-06-02T18:26:51.145Z,34.76
2018-06-02T18:29:18.765Z,35.10
2018-06-02T18:31:46.371Z,35.10
2018-06-02T18:34:13.887Z,35.18
2018-06-02T18:36:41.506Z,35.41
2018-06-02T18:39:09.110Z,35.58
2018-06-02T18:41:36.629Z,35.78
2018-06-02T18:44:04.191Z,35.97
2018-06-02T18:46:31.998Z,36.25
2018-06-02T18:48:59.522Z,36.42
2018-06-02T18:51:27.065Z,37.05
2018-06-02T18:53:54.671Z,37.13
2018-06-02T18:56:22.186Z,37.28
2018-06-02T18:58:49.745Z,37.45
2018-06-02T19:01:18.042Z,37.80
2018-06-02T19:03:45.562Z,38.00
2018-06-02T19:06:13.138Z,38.07
2018-06-02T19:08:40.656Z,38.27
2018-06-02T19:11:08.188Z,38.52
2018-06-02T19:13:35.730Z,38.74
2018-06-02T19:16:03.287Z,38.96
2018-06-02T19:18:30.977Z,39.12
2018-06-02T19:20:58.542Z,39.30
2018-06-02T19:23:26.586Z,39.40
2018-06-02T19:25:54.114Z,39.64
2018-06-02T19:28:21.658Z,39.83
2018-06-02T19:30:49.388Z,39.98
2018-06-02T19:33:16.906Z,40.21
2018-06-02T19:35:44.479Z,40.48
2018-06-02T19:38:11.998Z,40.68
2018-06-02T19:40:39.525Z,40.97
2018-06-02T19:43:07.062Z,41.25
2018-06-02T19:45:34.582Z,41.46
2018-06-02T19:48:02.097Z,41.72
2018-06-02T19:50:29.686Z,41.99
2018-06-02T19:52:57.299Z,42.32
2018-06-02T19:55:24.909Z,42.53
2018-06-02T19:57:52.672Z,42.76
2018-06-02T20:00:20.563Z,42.98
2018-06-02T20:02:48.295Z,43.16
2018-06-02T20:05:15.961Z,43.41
2018-06-02T20:07:43.522Z,43.68
2018-06-02T20:10:11.038Z,44.01
2018-06-02T20:12:38.881Z,44.24
2018-06-02T20:15:06.402Z,44.57
2018-06-02T20:17:33.917Z,44.78
2018-06-02T20:20:37.565Z,46.37
2018-06-02T20:23:05.984Z,45.67
2018-06-02T20:25:34.634Z,46.18
2018-06-02T20:28:03.721Z,46.53
2018-06-02T20:30:32.137Z,46.67
2018-06-02T20:33:00.714Z,46.40
2018-06-02T20:35:29.260Z,46.37
2018-06-02T20:37:58.363Z,47.09
2018-06-02T20:40:26.826Z,47.18
2018-06-02T20:42:55.546Z,47.18
2018-06-02T20:45:23.957Z,47.45
2018-06-02T20:47:52.369Z,47.85
2018-06-02T20:50:21.506Z,47.36
2018-06-02T20:52:49.938Z,47.96
2018-06-02T20:55:18.350Z,47.90
2018-06-02T20:57:47.053Z,47.33
2018-06-02T21:00:15.445Z,48.14
2018-06-02T21:02:43.862Z,47.77
2018-06-02T21:05:12.927Z,48.04
2018-06-02T21:07:41.354Z,48.34
2018-06-02T21:10:09.863Z,48.31
2018-06-02T21:12:38.994Z,48.68
2018-06-02T21:15:07.408Z,48.41
2018-06-02T21:17:36.176Z,48.58
2018-06-02T21:20:05.097Z,48.55
2018-06-02T21:22:33.540Z,48.79
2018-06-02T21:25:02.161Z,48.77
2018-06-02T21:27:30.712Z,48.82
2018-06-02T21:29:59.151Z,49.22
2018-06-02T21:32:28.218Z,48.94
2018-06-02T21:34:57.209Z,48.79
2018-06-02T21:37:25.630Z,48.92
2018-06-02T21:39:54.385Z,49.29
2018-06-02T21:42:22.929Z,48.94
2018-06-02T21:44:51.351Z,48.85
2018-06-02T21:47:20.102Z,49.14
2018-06-02T21:49:48.900Z,49.07
2018-06-02T21:52:17.504Z,49.16
2018-06-02T21:54:45.955Z,48.90
2018-06-02T21:57:14.482Z,49.01
2018-06-02T21:59:43.648Z,49.42
2018-06-02T22:02:12.062Z,49.51
2018-06-02T22:04:40.657Z,49.12
2018-06-02T22:07:09.370Z,49.05
2018-06-02T22:09:37.875Z,49.03
2018-06-02T22:12:06.697Z,49.12
2018-06-02T22:14:36.219Z,49.76
2018-06-02T22:17:04.658Z,49.82
2018-06-02T22:19:33.653Z,49.81
2018-06-02T22:22:02.223Z,50.29
2018-06-02T22:24:30.629Z,51.05
2018-06-02T22:26:59.142Z,51.35
2018-06-02T22:29:27.783Z,51.28
2018-06-02T22:31:56.198Z,50.96
2018-06-02T22:34:24.790Z,51.55
2018-06-02T22:36:53.517Z,51.24
2018-06-02T22:39:21.930Z,51.56
2018-06-02T22:41:51.109Z,51.09
2018-06-02T22:44:19.818Z,51.08
2018-06-02T22:46:48.247Z,51.35
2018-06-02T22:49:16.870Z,51.30
2018-06-02T22:51:56.406Z,51.79
2018-06-02T22:54:25.423Z,51.93
2018-06-02T22:56:53.983Z,52.21
2018-06-02T22:59:22.605Z,52.39
2018-06-02T23:01:51.657Z,52.54
2018-06-02T23:04:20.086Z,52.80
2018-06-02T23:06:48.729Z,52.44
2018-06-02T23:09:17.590Z,52.94
2018-06-02T23:11:46.014Z,53.06
2018-06-02T23:14:15.060Z,52.59
2018-06-02T23:16:43.785Z,52.67
2018-06-02T23:19:12.270Z,52.22
2018-06-02T23:21:40.727Z,52.11
2018-06-02T23:24:09.805Z,52.25
2018-06-02T23:26:38.234Z,52.29
2018-06-02T23:29:06.678Z,52.77
2018-06-02T23:31:35.295Z,52.96
2018-06-02T23:34:03.728Z,52.85
2018-06-02T23:36:32.181Z,53.00
2018-06-02T23:39:01.094Z,53.17
2018-06-02T23:41:29.571Z,53.13
2018-06-02T23:43:58.126Z,52.99
2018-06-02T23:46:26.757Z,52.53
2018-06-02T23:48:55.197Z,53.04
2018-06-02T23:51:23.613Z,53.33
2018-06-02T23:53:52.286Z,53.28
2018-06-02T23:56:20.700Z,52.99
2018-06-02T23:58:49.121Z,53.64
